createdAt,value
2019-02-09T00:01:24.949Z,6.85
2019-02-09T00:03:54.410Z,6.95
2019-02-09T00:06:23.892Z,6.87
2019-02-09T00:08:57.456Z,6.81
2019-02-09T00:11:27.336Z,6.80
2019-02-09T00:13:57.586Z,6.82
2019-02-09T00:16:27.033Z,6.82
2019-02-09T00:18:56.502Z,6.91
2019-02-09T00:21:25.979Z,6.83
2019-02-09T00:23:56.266Z,6.82
2019-02-09T00:26:25.737Z,6.86
2019-02-09T00:28:54.896Z,6.84
2019-02-09T00:31:24.348Z,6.88
2019-02-09T00:33:53.523Z,6.96
2019-02-09T00:36:28.561Z,6.84
2019-02-09T00:38:58.101Z,6.94
2019-02-09T00:41:27.329Z,6.97
2019-02-09T00:43:57.325Z,6.90
2019-02-09T00:46:26.532Z,6.81
2019-02-09T00:48:56.799Z,6.77
2019-02-09T00:51:26.025Z,6.84
2019-02-09T00:53:55.445Z,6.80
2019-02-09T00:56:24.977Z,6.86
2019-02-09T00:58:54.392Z,6.75
2019-02-09T01:01:23.965Z,6.81
2019-02-09T01:03:53.145Z,6.74
2019-02-09T01:06:23.162Z,6.75
2019-02-09T01:08:52.685Z,6.78
2019-02-09T01:11:22.204Z,6.82
2019-02-09T01:13:51.424Z,6.74
2019-02-09T01:16:21.569Z,6.77
2019-02-09T01:18:51.028Z,6.71
2019-02-09T01:21:20.611Z,6.55
2019-02-09T01:23:51.769Z,6.50
2019-02-09T01:26:21.056Z,6.44
2019-02-09T01:28:50.544Z,6.42
2019-02-09T01:31:19.998Z,6.29
2019-02-09T01:33:49.194Z,6.27
2019-02-09T01:36:18.939Z,6.18
2019-02-09T01:38:48.155Z,6.15
2019-02-09T01:41:20.579Z,6.15
2019-02-09T01:43:50.310Z,6.05
2019-02-09T01:46:19.488Z,6.04
2019-02-09T01:48:49.554Z,6.07
2019-02-09T01:51:18.796Z,6.01
2019-02-09T01:53:48.593Z,5.97
2019-02-09T01:56:18.778Z,5.97
2019-02-09T01:58:48.816Z,5.98
2019-02-09T02:01:18.290Z,5.92
2019-02-09T02:03:47.487Z,5.79
2019-02-09T02:06:16.987Z,5.89
2019-02-09T02:08:48.037Z,5.82
2019-02-09T02:11:17.507Z,5.85
2019-02-09T02:13:48.284Z,5.78
2019-02-09T02:16:17.741Z,5.84
2019-02-09T02:18:46.952Z,5.86
2019-02-09T02:21:16.798Z,5.71
2019-02-09T02:23:45.992Z,5.85
2019-02-09T02:26:15.143Z,5.77
2019-02-09T02:28:45.400Z,5.64
2019-02-09T02:31:15.766Z,5.64
2019-02-09T02:33:45.240Z,5.61
2019-02-09T02:36:14.400Z,5.56
2019-02-09T02:38:43.607Z,5.61
2019-02-09T02:41:13.596Z,5.58
2019-02-09T02:43:43.127Z,5.60
2019-02-09T02:46:13.785Z,5.60
2019-02-09T02:48:45.497Z,5.61
2019-02-09T02:51:15.436Z,5.58
2019-02-09T02:53:44.982Z,5.63
2019-02-09T02:56:14.412Z,5.63
2019-02-09T02:58:43.934Z,5.67
2019-02-09T03:01:13.608Z,5.67
2019-02-09T03:03:43.053Z,5.66
2019-02-09T03:06:12.549Z,5.65
2019-02-09T03:08:41.728Z,5.63
2019-02-09T03:11:11.507Z,5.65
2019-02-09T03:13:40.662Z,5.64
2019-02-09T03:16:09.870Z,5.66
2019-02-09T03:18:39.029Z,5.61
2019-02-09T03:21:08.565Z,5.65
2019-02-09T03:23:37.729Z,5.57
2019-02-09T03:26:06.917Z,5.54
2019-02-09T03:28:37.358Z,5.49
2019-02-09T03:31:06.541Z,5.49
2019-02-09T03:33:36.778Z,5.44
2019-02-09T03:36:05.965Z,5.43
2019-02-09T03:38:38.489Z,5.39
2019-02-09T03:41:07.941Z,5.50
2019-02-09T03:43:37.397Z,5.43
2019-02-09T03:46:08.173Z,5.46
2019-02-09T03:48:38.387Z,5.49
2019-02-09T03:51:08.763Z,5.39
2019-02-09T03:53:37.976Z,5.45
2019-02-09T03:56:08.589Z,5.44
2019-02-09T03:58:38.594Z,5.39
2019-02-09T04:01:09.291Z,5.45
2019-02-09T04:03:38.712Z,5.38
2019-02-09T04:06:08.196Z,5.37
2019-02-09T04:08:38.162Z,5.43
2019-02-09T04:11:07.699Z,5.44
2019-02-09T04:13:37.130Z,5.48
2019-02-09T04:16:06.872Z,5.53
2019-02-09T04:18:38.113Z,5.51
2019-02-09T04:21:07.303Z,5.51
2019-02-09T04:23:36.586Z,5.61
2019-02-09T04:26:05.777Z,5.54
2019-02-09T04:28:36.786Z,5.53
2019-02-09T04:31:06.903Z,5.55
2019-02-09T04:33:38.090Z,5.56
2019-02-09T04:36:07.252Z,5.64
2019-02-09T04:38:36.765Z,5.72
2019-02-09T04:41:07.159Z,5.72
2019-02-09T04:43:37.432Z,5.79
2019-02-09T04:46:07.681Z,5.78
2019-02-09T04:48:37.120Z,5.86
2019-02-09T04:51:06.935Z,5.91
2019-02-09T04:53:36.165Z,5.93
2019-02-09T04:56:05.901Z,5.85
2019-02-09T04:58:35.086Z,5.85
2019-02-09T05:01:04.607Z,5.80
2019-02-09T05:03:35.376Z,5.81
2019-02-09T05:06:04.543Z,5.81
2019-02-09T05:08:35.151Z,5.94
2019-02-09T05:11:04.602Z,5.94
2019-02-09T05:13:36.760Z,6.05
2019-02-09T05:16:05.919Z,6.22
2019-02-09T05:18:35.433Z,6.37
2019-02-09T05:21:05.029Z,6.45
2019-02-09T05:23:34.235Z,6.34
2019-02-09T05:26:03.389Z,6.41
2019-02-09T05:28:33.151Z,6.38
2019-02-09T05:31:02.982Z,6.44
2019-02-09T05:33:32.756Z,6.36
2019-02-09T05:36:01.940Z,6.42
2019-02-09T05:38:31.451Z,6.33
2019-02-09T05:41:00.608Z,6.30
2019-02-09T05:43:30.087Z,6.17
2019-02-09T05:45:59.608Z,6.20
2019-02-09T05:48:29.866Z,6.16
2019-02-09T05:51:00.064Z,6.05
2019-02-09T05:53:29.521Z,6.12
2019-02-09T05:55:58.677Z,6.05
2019-02-09T05:58:28.147Z,6.06
2019-02-09T06:00:57.604Z,6.00
2019-02-09T06:03:27.362Z,6.02
2019-02-09T06:05:56.829Z,6.03
2019-02-09T06:08:27.991Z,6.03
2019-02-09T06:10:57.469Z,5.97
2019-02-09T06:13:26.659Z,5.94
2019-02-09T06:15:56.166Z,5.90
2019-02-09T06:18:25.335Z,5.88
2019-02-09T06:20:54.559Z,5.75
2019-02-09T06:23:24.010Z,5.59
2019-02-09T06:25:53.220Z,5.65
2019-02-09T06:28:22.386Z,5.77
2019-02-09T06:30:51.958Z,5.74
2019-02-09T06:33:21.407Z,5.80
2019-02-09T06:35:50.862Z,5.77
2019-02-09T06:38:20.378Z,5.96
2019-02-09T06:40:49.913Z,6.06
2019-02-09T06:43:19.087Z,6.05
2019-02-09T06:45:49.577Z,6.03
2019-02-09T06:48:20.953Z,6.14
2019-02-09T06:50:50.185Z,6.24
2019-02-09T06:53:19.463Z,6.33
2019-02-09T06:55:48.932Z,6.28
2019-02-09T06:58:19.632Z,6.46
2019-02-09T07:00:49.121Z,6.59
2019-02-09T07:03:20.200Z,6.81
2019-02-09T07:05:49.372Z,6.92
2019-02-09T07:08:18.660Z,6.73
2019-02-09T07:10:48.645Z,6.67
2019-02-09T07:13:18.377Z,6.67
2019-02-09T07:15:47.813Z,6.58
2019-02-09T07:18:19.885Z,6.68
2019-02-09T07:20:52.425Z,6.71
2019-02-09T07:23:25.220Z,6.68
2019-02-09T07:25:55.020Z,6.66
2019-02-09T07:28:24.212Z,6.60
2019-02-09T07:30:53.679Z,6.50
2019-02-09T07:33:22.838Z,6.56
2019-02-09T07:35:52.271Z,6.48
2019-02-09T07:38:21.480Z,6.56
2019-02-09T07:40:51.278Z,6.59
2019-02-09T07:43:21.271Z,6.67
2019-02-09T07:45:50.828Z,6.72
2019-02-09T07:48:20.292Z,6.69
2019-02-09T07:50:50.070Z,6.60
2019-02-09T07:53:19.270Z,6.60
2019-02-09T07:55:50.946Z,6.66
2019-02-09T07:58:20.684Z,6.70
2019-02-09T08:00:50.474Z,6.64
2019-02-09T08:03:23.265Z,6.67
2019-02-09T08:05:54.532Z,6.65
2019-02-09T08:08:23.834Z,6.68
2019-02-09T08:10:53.123Z,6.70
2019-02-09T08:13:24.910Z,6.74
2019-02-09T08:15:56.860Z,6.69
2019-02-09T08:18:26.816Z,6.72
2019-02-09T08:20:56.882Z,6.76
2019-02-09T08:23:29.970Z,6.75
2019-02-09T08:26:19.964Z,6.75
2019-02-09T08:28:52.498Z,6.81
2019-02-09T08:31:21.765Z,6.89
2019-02-09T08:33:51.933Z,6.97
2019-02-09T08:36:22.556Z,7.00
2019-02-09T08:38:51.951Z,7.00
2019-02-09T08:41:21.526Z,7.01
2019-02-09T08:43:51.347Z,6.95
2019-02-09T08:46:20.537Z,6.97
2019-02-09T08:48:49.938Z,6.96
2019-02-09T08:51:20.682Z,6.99
2019-02-09T08:53:50.284Z,7.06
2019-02-09T08:56:20.114Z,7.11
2019-02-09T08:58:52.195Z,7.19
2019-02-09T09:01:26.448Z,7.31
2019-02-09T09:03:58.796Z,7.39
2019-02-09T09:06:31.420Z,7.43
2019-02-09T09:09:00.613Z,7.50
2019-02-09T09:11:31.506Z,7.58
2019-02-09T09:14:06.282Z,7.74
2019-02-09T09:16:36.219Z,7.84
2019-02-09T09:19:06.602Z,7.99
2019-02-09T09:21:37.148Z,7.94
2019-02-09T09:24:06.312Z,7.92
2019-02-09T09:26:35.576Z,8.09
2019-02-09T09:29:05.660Z,8.19
2019-02-09T09:31:35.534Z,8.12
2019-02-09T09:34:05.378Z,8.16
2019-02-09T09:36:35.428Z,8.18
2019-02-09T09:39:10.719Z,8.31
2019-02-09T09:41:40.285Z,8.26
2019-02-09T09:44:09.485Z,8.32
2019-02-09T09:46:51.706Z,8.37
2019-02-09T09:49:20.900Z,8.42
2019-02-09T09:51:50.894Z,8.34
2019-02-09T09:54:20.394Z,8.36
2019-02-09T09:56:49.582Z,8.36
2019-02-09T09:59:18.782Z,8.36
2019-02-09T10:01:47.983Z,8.32
2019-02-09T10:04:18.799Z,8.30
2019-02-09T10:06:54.345Z,8.39
2019-02-09T10:09:25.411Z,8.33
2019-02-09T10:11:54.926Z,8.32
2019-02-09T10:14:24.998Z,8.34
2019-02-09T10:16:54.239Z,8.36
2019-02-09T10:19:24.733Z,8.46
2019-02-09T10:21:54.269Z,8.45
2019-02-09T10:24:24.408Z,8.45
2019-02-09T10:26:55.138Z,8.42
2019-02-09T10:29:24.761Z,8.43
2019-02-09T10:31:53.925Z,8.53
2019-02-09T10:34:23.113Z,8.60
2019-02-09T10:36:52.325Z,8.54
2019-02-09T10:39:21.499Z,8.62
2019-02-09T10:41:50.721Z,8.68
2019-02-09T10:44:19.889Z,8.80
2019-02-09T10:46:49.102Z,8.91
2019-02-09T10:49:19.098Z,8.83
2019-02-09T10:51:54.237Z,8.87
2019-02-09T10:54:23.391Z,8.98
2019-02-09T10:56:52.569Z,9.08
2019-02-09T10:59:23.343Z,9.09
2019-02-09T11:01:52.599Z,9.11
2019-02-09T11:04:21.749Z,9.15
2019-02-09T11:06:50.932Z,9.14
2019-02-09T11:09:25.297Z,9.20
2019-02-09T11:11:54.750Z,9.03
2019-02-09T11:14:23.930Z,8.97
2019-02-09T11:16:53.483Z,8.98
2019-02-09T11:19:22.642Z,9.19
2019-02-09T11:21:52.163Z,9.23
2019-02-09T11:24:22.134Z,9.35
2019-02-09T11:26:51.354Z,9.32
2019-02-09T11:29:20.524Z,9.41
2019-02-09T11:31:49.720Z,9.85
2019-02-09T11:34:18.998Z,10.24
2019-02-09T11:36:48.188Z,10.08
2019-02-09T11:39:17.372Z,10.13
2019-02-09T11:41:46.838Z,10.35
2019-02-09T11:44:16.009Z,10.14
2019-02-09T11:46:45.230Z,10.11
2019-02-09T11:49:17.008Z,9.71
2019-02-09T11:51:46.145Z,9.57
2019-02-09T11:54:15.347Z,9.44
2019-02-09T11:56:44.514Z,9.25
2019-02-09T11:59:13.710Z,9.32
2019-02-09T12:01:43.682Z,9.30
2019-02-09T12:04:12.916Z,9.41
2019-02-09T12:06:43.220Z,9.35
2019-02-09T12:09:12.472Z,9.52
2019-02-09T12:11:41.655Z,9.37
2019-02-09T12:14:10.853Z,9.43
2019-02-09T12:16:40.280Z,9.46
2019-02-09T12:19:09.744Z,9.45
2019-02-09T12:21:38.945Z,9.44
2019-02-09T12:24:09.925Z,9.46
2019-02-09T12:26:39.214Z,9.56
2019-02-09T12:29:08.519Z,9.61
2019-02-09T12:31:37.691Z,9.47
2019-02-09T12:34:06.888Z,9.35
2019-02-09T12:36:36.051Z,9.25
2019-02-09T12:39:08.944Z,9.27
2019-02-09T12:41:38.368Z,9.31
2019-02-09T12:44:07.550Z,9.26
2019-02-09T12:46:36.731Z,9.34
2019-02-09T12:49:06.285Z,9.43
2019-02-09T12:51:35.466Z,9.30
2019-02-09T12:54:05.175Z,9.25
2019-02-09T12:56:34.352Z,9.37
2019-02-09T12:59:03.861Z,9.41
2019-02-09T13:01:33.043Z,9.33
2019-02-09T13:04:02.270Z,9.49
2019-02-09T13:06:31.926Z,9.39
2019-02-09T13:09:01.450Z,9.44
2019-02-09T13:11:30.923Z,9.40
2019-02-09T13:14:00.139Z,9.37
2019-02-09T13:16:29.600Z,9.41
2019-02-09T13:18:58.787Z,9.38
2019-02-09T13:21:27.966Z,9.43
2019-02-09T13:23:57.448Z,9.42
2019-02-09T13:26:26.845Z,9.39
2019-02-09T13:28:56.294Z,9.59
2019-02-09T13:31:25.568Z,9.87
2019-02-09T13:33:54.773Z,9.86
2019-02-09T13:36:23.976Z,9.73
2019-02-09T13:38:53.298Z,9.78
2019-02-09T13:41:22.481Z,9.79
2019-02-09T13:43:51.646Z,9.89
2019-02-09T13:46:20.958Z,9.87
2019-02-09T13:48:50.937Z,9.79
2019-02-09T13:51:20.397Z,9.81
2019-02-09T13:53:50.350Z,9.80
2019-02-09T13:56:20.084Z,9.85
2019-02-09T13:58:49.240Z,9.90
2019-02-09T14:01:18.448Z,10.05
2019-02-09T14:03:47.636Z,9.89
2019-02-09T14:06:17.749Z,9.77
2019-02-09T14:08:47.063Z,9.90
2019-02-09T14:11:16.598Z,9.91
2019-02-09T14:13:45.925Z,9.96
2019-02-09T14:16:17.396Z,9.99
2019-02-09T14:18:48.227Z,9.99
2019-02-09T14:21:18.744Z,9.90
2019-02-09T14:23:48.253Z,9.82
2019-02-09T14:26:17.445Z,9.80
2019-02-09T14:28:46.607Z,9.77
2019-02-09T14:31:15.817Z,9.71
2019-02-09T14:33:44.994Z,9.79
2019-02-09T14:36:14.203Z,9.85
2019-02-09T14:38:43.369Z,10.04
2019-02-09T14:41:12.560Z,10.04
2019-02-09T14:43:43.984Z,10.13
2019-02-09T14:46:13.204Z,10.17
2019-02-09T14:48:42.401Z,10.22
2019-02-09T14:51:11.598Z,9.89
2019-02-09T14:53:41.041Z,9.79
2019-02-09T14:56:10.224Z,9.85
2019-02-09T14:58:39.404Z,9.77
2019-02-09T15:01:08.633Z,9.77
2019-02-09T15:03:37.943Z,9.85
2019-02-09T15:06:10.249Z,9.82
2019-02-09T15:08:42.593Z,9.92
2019-02-09T15:11:17.414Z,9.88
2019-02-09T15:13:46.773Z,9.67
2019-02-09T15:16:32.258Z,9.69
2019-02-09T15:19:02.279Z,9.69
2019-02-09T15:21:31.487Z,9.59
2019-02-09T15:24:01.239Z,9.56
2019-02-09T15:26:30.425Z,9.53
2019-02-09T15:28:59.609Z,9.51
2019-02-09T15:31:29.137Z,9.56
2019-02-09T15:33:58.321Z,9.60
2019-02-09T15:36:27.495Z,9.43
2019-02-09T15:38:56.671Z,9.38
2019-02-09T15:41:25.915Z,9.39
2019-02-09T15:43:55.072Z,9.35
2019-02-09T15:46:24.253Z,9.39
2019-02-09T15:48:53.735Z,9.28
2019-02-09T15:51:22.914Z,9.29
2019-02-09T15:53:52.860Z,9.28
2019-02-09T15:56:22.034Z,9.31
2019-02-09T15:58:52.023Z,9.42
2019-02-09T16:01:21.232Z,9.29
2019-02-09T16:03:50.430Z,9.33
2019-02-09T16:06:20.103Z,9.34
2019-02-09T16:08:49.731Z,9.30
2019-02-09T16:11:19.225Z,9.26
2019-02-09T16:13:49.929Z,9.19
2019-02-09T16:16:19.224Z,9.09
2019-02-09T16:18:48.459Z,9.07
2019-02-09T16:21:18.881Z,8.90
2019-02-09T16:23:49.290Z,8.79
2019-02-09T16:26:19.173Z,8.68
2019-02-09T16:28:48.811Z,8.54
2019-02-09T16:31:20.384Z,8.56
2019-02-09T16:33:53.911Z,8.51
2019-02-09T16:36:28.738Z,8.48
2019-02-09T16:38:58.191Z,8.50
2019-02-09T16:41:27.430Z,8.42
2019-02-09T16:43:56.649Z,8.42
2019-02-09T16:46:25.902Z,8.34
2019-02-09T16:48:55.504Z,8.37
2019-02-09T16:51:24.956Z,8.34
2019-02-09T16:53:54.265Z,8.26
2019-02-09T16:56:23.753Z,8.28
2019-02-09T16:58:53.243Z,8.27
2019-02-09T17:01:22.490Z,8.29
2019-02-09T17:03:52.159Z,8.22
2019-02-09T17:06:23.062Z,8.20
2019-02-09T17:08:53.860Z,8.19
2019-02-09T17:11:23.447Z,8.17
2019-02-09T17:13:53.309Z,8.13
2019-02-09T17:16:24.130Z,8.17
2019-02-09T17:18:53.464Z,8.16
2019-02-09T17:21:22.747Z,8.09
2019-02-09T17:23:53.871Z,8.00
2019-02-09T17:26:32.810Z,7.92
2019-02-09T17:29:04.935Z,7.95
2019-02-09T17:31:35.358Z,7.96
2019-02-09T17:34:04.704Z,7.81
2019-02-09T17:36:34.135Z,7.89
2019-02-09T17:39:07.196Z,7.83
2019-02-09T17:41:36.547Z,7.94
2019-02-09T17:44:05.932Z,7.91
2019-02-09T17:46:35.539Z,7.89
2019-02-09T17:49:04.814Z,7.88
2019-02-09T17:51:35.349Z,7.94
2019-02-09T17:54:04.787Z,8.04
2019-02-09T17:56:34.066Z,8.02
2019-02-09T17:59:03.705Z,7.99
2019-02-09T18:01:33.036Z,7.78
2019-02-09T18:04:02.901Z,7.86
2019-02-09T18:06:42.076Z,7.79
2019-02-09T18:09:12.210Z,7.67
2019-02-09T18:11:42.401Z,7.72
2019-02-09T18:14:12.190Z,7.69
2019-02-09T18:16:41.378Z,7.75
2019-02-09T18:19:12.716Z,7.67
2019-02-09T18:21:42.781Z,7.66
2019-02-09T18:24:12.630Z,7.77
2019-02-09T18:26:42.483Z,7.72
2019-02-09T18:29:12.320Z,7.60
2019-02-09T18:31:42.210Z,7.46
2019-02-09T18:34:11.643Z,7.39
2019-02-09T18:36:41.506Z,7.52
2019-02-09T18:39:12.361Z,7.56
2019-02-09T18:41:41.850Z,7.55
2019-02-09T18:44:11.027Z,7.62
2019-02-09T18:46:40.708Z,7.55
2019-02-09T18:49:09.897Z,7.50
2019-02-09T18:51:39.131Z,7.46
2019-02-09T18:54:09.283Z,7.43
2019-02-09T18:56:38.527Z,7.34
2019-02-09T18:59:09.274Z,7.29
2019-02-09T19:01:38.576Z,7.36
2019-02-09T19:04:08.106Z,7.28
2019-02-09T19:06:38.968Z,7.40
2019-02-09T19:09:09.471Z,7.26
2019-02-09T19:11:39.211Z,7.26
2019-02-09T19:14:10.766Z,7.13
2019-02-09T19:16:40.028Z,7.22
2019-02-09T19:19:09.501Z,7.17
2019-02-09T19:21:42.264Z,7.14
2019-02-09T19:24:11.803Z,7.08
2019-02-09T19:26:41.002Z,7.09
2019-02-09T19:29:10.641Z,7.20
2019-02-09T19:31:39.853Z,7.08
2019-02-09T19:34:11.260Z,7.02
2019-02-09T19:36:40.773Z,7.05
2019-02-09T19:39:11.303Z,7.11
2019-02-09T19:41:40.754Z,7.13
2019-02-09T19:44:10.219Z,7.14
2019-02-09T19:46:39.676Z,7.08
2019-02-09T19:49:09.002Z,6.96
2019-02-09T19:51:38.738Z,6.98
2019-02-09T19:54:08.072Z,6.94
2019-02-09T19:56:37.553Z,6.97
2019-02-09T19:59:07.566Z,6.95
2019-02-09T20:01:38.105Z,7.10
2019-02-09T20:04:07.332Z,7.06
2019-02-09T20:06:37.066Z,7.04
2019-02-09T20:09:08.114Z,6.91
2019-02-09T20:11:37.285Z,6.89
2019-02-09T20:14:07.077Z,6.88
2019-02-09T20:16:37.006Z,6.78
2019-02-09T20:19:07.231Z,6.74
2019-02-09T20:21:36.698Z,6.71
2019-02-09T20:24:06.114Z,6.75
2019-02-09T20:26:35.683Z,6.71
2019-02-09T20:29:06.861Z,6.66
2019-02-09T20:31:40.007Z,6.82
2019-02-09T20:34:09.512Z,6.89
2019-02-09T20:36:41.389Z,6.87
2019-02-09T20:39:14.459Z,6.90
2019-02-09T20:41:45.844Z,6.91
2019-02-09T20:44:15.405Z,6.93
2019-02-09T20:46:47.551Z,6.99
2019-02-09T20:49:17.823Z,7.12
2019-02-09T20:51:50.148Z,7.15
2019-02-09T20:54:19.750Z,7.23
2019-02-09T20:56:49.305Z,7.09
2019-02-09T20:59:18.771Z,6.97
2019-02-09T21:01:53.851Z,7.05
2019-02-09T21:04:23.421Z,7.00
2019-02-09T21:06:56.971Z,6.87
2019-02-09T21:09:27.306Z,6.92
2019-02-09T21:11:56.830Z,6.90
2019-02-09T21:14:32.156Z,6.87
2019-02-09T21:17:01.668Z,6.88
2019-02-09T21:19:33.083Z,6.92
2019-02-09T21:22:02.508Z,6.93
2019-02-09T21:24:32.058Z,6.86
2019-02-09T21:27:01.533Z,6.80
2019-02-09T21:29:31.620Z,6.77
2019-02-09T21:32:03.012Z,6.60
2019-02-09T21:34:33.758Z,6.50
2019-02-09T21:37:05.573Z,6.51
2019-02-09T21:39:36.648Z,6.58
2019-02-09T21:42:06.269Z,6.43
2019-02-09T21:44:35.906Z,6.35
2019-02-09T21:47:05.564Z,6.17
2019-02-09T21:49:36.691Z,6.23
2019-02-09T21:52:06.649Z,6.27
2019-02-09T21:54:37.931Z,6.22
2019-02-09T21:57:10.005Z,6.26
2019-02-09T21:59:40.756Z,6.18
2019-02-09T22:02:10.267Z,6.12
2019-02-09T22:04:39.934Z,6.12
2019-02-09T22:07:10.271Z,5.94
2019-02-09T22:09:39.486Z,5.90
2019-02-09T22:12:09.632Z,5.86
2019-02-09T22:14:40.015Z,5.83
2019-02-09T22:17:09.971Z,5.82
2019-02-09T22:19:39.284Z,5.81
2019-02-09T22:22:08.869Z,5.76
2019-02-09T22:24:38.137Z,5.68
2019-02-09T22:27:08.755Z,5.65
2019-02-09T22:29:40.738Z,5.61
2019-02-09T22:32:09.916Z,5.68
2019-02-09T22:34:39.112Z,5.57
2019-02-09T22:37:08.357Z,5.55
2019-02-09T22:39:37.509Z,5.56
2019-02-09T22:42:06.688Z,5.49
2019-02-09T22:44:35.899Z,5.47
2019-02-09T22:47:05.599Z,5.37
2019-02-09T22:49:35.575Z,5.34
2019-02-09T22:52:04.877Z,5.40
2019-02-09T22:54:34.071Z,5.31
2019-02-09T22:57:03.606Z,5.20
2019-02-09T22:59:33.209Z,5.09
2019-02-09T23:02:03.364Z,5.04
2019-02-09T23:04:52.499Z,5.07
2019-02-09T23:07:25.151Z,5.21
2019-02-09T23:09:54.331Z,5.16
2019-02-09T23:12:23.519Z,5.21
2019-02-09T23:14:52.800Z,5.27
2019-02-09T23:17:21.973Z,5.30
2019-02-09T23:19:51.154Z,5.32
2019-02-09T23:22:21.622Z,5.40
2019-02-09T23:24:50.854Z,5.45
2019-02-09T23:27:20.270Z,5.49
2019-02-09T23:29:49.468Z,5.47
2019-02-09T23:32:18.632Z,5.59
2019-02-09T23:34:48.150Z,5.62
2019-02-09T23:37:17.967Z,5.62
2019-02-09T23:39:47.161Z,5.56
2019-02-09T23:42:17.492Z,5.46
2019-02-09T23:44:46.676Z,5.55
2019-02-09T23:47:15.879Z,5.57
2019-02-09T23:49:45.072Z,5.57
2019-02-09T23:52:15.147Z,5.63
2019-02-09T23:54:44.427Z,5.67
2019-02-09T23:57:13.772Z,5.67
2019-02-09T23:59:42.964Z,5.67
